Time;durP1;ratioP1;P1;durP2;ratioP2;P2;SDS_P1;SDS_P2;PMS_P1;PMS_P2;Temp;Humidity;BMP_temperature;BMP_pressure;BME280_temperature;BME280_humidity;BME280_pressure;Samples;Min_cycle;Max_cycle;Signal;HPM_P1;HPM_P2
2022/04/24 00:01:55;;;;;;;40.33;29.88;;;9.00;97.30;;;;;;5071254;28;20124;-67
2022/04/24 00:04:23;;;;;;;41.10;29.00;;;9.10;97.30;;;;;;5064658;28;20353;-67
2022/04/24 00:06:49;;;;;;;39.53;29.35;;;9.00;97.30;;;;;;5069236;28;20016;-67
2022/04/24 00:09:15;;;;;;;38.78;28.95;;;9.00;97.20;;;;;;5068271;28;20526;-66
2022/04/24 00:11:41;;;;;;;45.80;30.05;;;9.10;97.30;;;;;;5052764;28;20097;-67
2022/04/24 00:14:10;;;;;;;41.38;28.27;;;9.10;97.50;;;;;;5065640;28;20044;-66
2022/04/24 00:16:36;;;;;;;38.58;28.35;;;9.10;97.40;;;;;;5073913;28;20024;-67
2022/04/24 00:19:02;;;;;;;39.08;28.75;;;9.10;97.50;;;;;;5066912;28;20028;-67
2022/04/24 00:21:28;;;;;;;39.45;27.23;;;9.00;97.40;;;;;;5068933;28;20035;-67
2022/04/24 00:23:54;;;;;;;36.92;26.65;;;9.00;97.30;;;;;;5066157;28;20039;-67
2022/04/24 00:26:20;;;;;;;37.72;27.70;;;8.90;97.40;;;;;;5063676;28;20040;-67
2022/04/24 00:28:45;;;;;;;39.35;27.58;;;8.90;97.30;;;;;;5066596;28;20052;-67
2022/04/24 00:31:11;;;;;;;38.08;26.65;;;8.80;97.20;;;;;;5067828;28;20035;-67
2022/04/24 00:33:37;;;;;;;37.15;27.38;;;8.80;97.30;;;;;;5065135;28;20025;-67
2022/04/24 00:36:03;;;;;;;40.67;28.60;;;8.80;97.10;;;;;;5066897;28;20052;-67
2022/04/24 00:38:31;;;;;;;38.10;27.92;;;8.80;97.20;;;;;;5065477;28;20039;-67
2022/04/24 00:41:00;;;;;;;35.42;26.23;;;8.70;97.10;;;;;;5067958;28;20111;-67
2022/04/24 00:43:25;;;;;;;40.50;27.95;;;8.60;96.80;;;;;;5065822;28;20032;-67
2022/04/24 00:46:10;;;;;;;37.40;27.13;;;8.50;96.70;;;;;;5071518;28;20039;-67
2022/04/24 00:48:36;;;;;;;40.25;27.85;;;8.40;96.30;;;;;;5068524;28;20033;-66
2022/04/24 00:51:01;;;;;;;36.00;26.58;;;8.30;96.20;;;;;;5063108;28;20425;-67
2022/04/24 00:53:28;;;;;;;36.63;26.60;;;8.40;96.00;;;;;;5063889;28;20303;-66
2022/04/24 00:55:55;;;;;;;35.45;25.92;;;8.40;96.30;;;;;;5065254;28;20039;-66
2022/04/24 00:58:20;;;;;;;36.50;26.08;;;8.50;96.10;;;;;;5070069;28;20021;-66
2022/04/24 01:00:46;;;;;;;35.38;26.35;;;8.50;96.20;;;;;;5066178;28;20038;-67
2022/04/24 01:03:15;;;;;;;36.28;26.48;;;8.50;96.20;;;;;;5066332;28;20040;-67
2022/04/24 01:05:40;;;;;;;36.50;26.55;;;8.50;96.40;;;;;;5066713;28;20155;-66
2022/04/24 01:08:06;;;;;;;37.85;27.45;;;8.50;96.30;;;;;;5069068;28;20218;-68
2022/04/24 01:10:38;;;;;;;38.17;27.55;;;8.60;96.50;;;;;;5068867;28;20055;-67
2022/04/24 01:13:05;;;;;;;36.22;27.50;;;8.50;96.40;;;;;;5066439;28;20022;-66
2022/04/24 01:15:31;;;;;;;38.28;27.33;;;8.50;96.10;;;;;;5071114;28;20064;-66
2022/04/24 01:17:57;;;;;;;37.53;27.75;;;8.60;96.60;;;;;;4981512;28;20314;-65
2022/04/24 01:20:22;;;;;;;36.50;24.77;;;8.60;96.60;;;;;;5062040;28;20033;-66
2022/04/24 01:22:51;;;;;;;38.85;26.25;;;8.60;96.70;;;;;;5063362;28;20040;-66
2022/04/24 01:25:17;;;;;;;37.55;27.83;;;8.60;96.80;;;;;;5064160;28;20263;-66
2022/04/24 01:27:43;;;;;;;39.97;28.83;;;8.60;96.60;;;;;;5067283;28;20039;-65
2022/04/24 01:30:09;;;;;;;46.30;32.40;;;8.60;96.20;;;;;;5060433;28;20021;-65
2022/04/24 01:32:35;;;;;;;43.28;31.23;;;8.60;95.90;;;;;;5067725;28;20111;-65
2022/04/24 01:35:01;;;;;;;41.22;29.42;;;8.60;95.80;;;;;;5062675;28;20078;-66
2022/04/24 01:37:27;;;;;;;47.90;32.95;;;8.60;95.60;;;;;;5066923;28;20024;-66
2022/04/24 01:39:53;;;;;;;45.97;32.05;;;8.60;95.40;;;;;;5063266;28;20028;-66
2022/04/24 01:42:19;;;;;;;44.90;31.45;;;8.60;95.20;;;;;;5064806;28;20038;-66
2022/04/24 01:44:45;;;;;;;45.97;31.15;;;8.60;94.70;;;;;;5064290;28;20029;-66
2022/04/24 01:47:12;;;;;;;45.63;31.60;;;8.60;94.10;;;;;;5084622;28;20557;-67
2022/04/24 01:49:38;;;;;;;52.33;35.58;;;8.70;94.70;;;;;;5066837;28;20029;-66
2022/04/24 01:52:08;;;;;;;52.75;35.58;;;8.70;94.70;;;;;;5066707;28;20409;-68
2022/04/24 01:54:37;;;;;;;54.13;36.45;;;8.60;94.30;;;;;;5065069;28;20029;-67
2022/04/24 01:57:02;;;;;;;54.38;37.17;;;8.60;93.30;;;;;;5067307;28;20099;-66
2022/04/24 01:59:28;;;;;;;55.97;36.83;;;8.50;93.00;;;;;;5066289;28;20112;-67
2022/04/24 02:01:54;;;;;;;56.15;38.88;;;8.40;93.20;;;;;;5069229;28;20402;-67
2022/04/24 02:04:23;;;;;;;53.97;37.47;;;8.40;93.50;;;;;;5067119;28;20040;-68
2022/04/24 02:06:51;;;;;;;59.47;39.55;;;8.40;93.40;;;;;;5064006;28;20684;-67
2022/04/24 02:09:17;;;;;;;55.25;37.78;;;8.30;93.30;;;;;;5061856;28;20044;-67
2022/04/24 02:11:43;;;;;;;58.45;40.38;;;8.30;92.50;;;;;;5062392;28;20047;-69
2022/04/24 02:14:09;;;;;;;57.13;39.65;;;8.30;92.20;;;;;;5064598;28;20033;-67
2022/04/24 02:16:35;;;;;;;60.40;41.00;;;8.30;92.00;;;;;;5069685;28;20020;-67
2022/04/24 02:19:00;;;;;;;71.45;45.10;;;8.30;91.50;;;;;;5070011;28;20306;-68
2022/04/24 02:21:28;;;;;;;62.15;43.22;;;8.30;91.00;;;;;;5066356;28;20033;-68
2022/04/24 02:23:54;;;;;;;73.43;47.92;;;8.30;90.90;;;;;;5063895;28;20020;-67
2022/04/24 02:26:20;;;;;;;62.97;43.35;;;8.30;90.70;;;;;;5054426;28;20028;-67
2022/04/24 02:28:45;;;;;;;63.53;42.85;;;8.30;89.90;;;;;;5058754;28;20025;-68
2022/04/24 02:31:11;;;;;;;62.80;43.60;;;8.40;89.50;;;;;;5056563;28;20029;-68
2022/04/24 02:33:37;;;;;;;66.28;42.67;;;8.50;89.70;;;;;;5055074;28;20040;-67
2022/04/24 02:36:04;;;;;;;62.28;42.40;;;8.50;89.60;;;;;;5057880;28;20040;-67
2022/04/24 02:38:29;;;;;;;91.80;53.17;;;8.50;89.50;;;;;;5057602;28;20029;-67
2022/04/24 02:40:55;;;;;;;96.18;52.53;;;8.40;89.30;;;;;;5058458;28;20043;-67
2022/04/24 02:43:21;;;;;;;102.60;53.28;;;8.40;88.70;;;;;;5062006;28;20306;-67
2022/04/24 02:45:46;;;;;;;68.22;44.78;;;8.30;88.30;;;;;;5058597;28;20033;-69
2022/04/24 02:48:13;;;;;;;92.65;50.35;;;8.20;87.00;;;;;;5060275;28;20029;-66
2022/04/24 02:50:39;;;;;;;92.53;52.63;;;8.20;86.70;;;;;;5057986;28;20025;-67
2022/04/24 02:53:06;;;;;;;82.72;49.17;;;8.20;86.40;;;;;;5055747;28;20025;-67
2022/04/24 02:55:32;;;;;;;70.10;47.38;;;8.30;85.70;;;;;;5059293;28;20048;-67
2022/04/24 02:57:57;;;;;;;84.30;50.65;;;8.30;84.90;;;;;;5062068;28;20119;-66
2022/04/24 03:00:24;;;;;;;84.35;50.08;;;8.40;85.50;;;;;;5058277;28;20104;-66
2022/04/24 03:02:51;;;;;;;80.85;49.40;;;8.40;86.10;;;;;;5057833;28;20036;-67
2022/04/24 03:05:22;;;;;;;69.72;45.45;;;8.30;86.30;;;;;;5058055;28;20025;-68
2022/04/24 03:07:48;;;;;;;91.53;51.42;;;8.30;85.50;;;;;;5058440;28;20047;-67
2022/04/24 03:10:16;;;;;;;73.53;47.70;;;8.30;85.10;;;;;;5060220;28;20025;-68
2022/04/24 03:12:43;;;;;;;77.72;47.40;;;8.30;85.00;;;;;;5058143;28;20028;-68
2022/04/24 03:15:11;;;;;;;80.63;47.10;;;8.30;84.90;;;;;;5057336;28;20032;-67
2022/04/24 03:17:37;;;;;;;81.25;48.00;;;8.40;84.40;;;;;;5059486;28;20035;-67
2022/04/24 03:20:05;;;;;;;82.13;49.85;;;8.40;84.00;;;;;;5057886;28;20039;-68
2022/04/24 03:22:33;;;;;;;76.50;46.72;;;8.40;84.00;;;;;;5056330;28;20112;-68
2022/04/24 03:24:59;;;;;;;77.55;47.80;;;8.30;83.70;;;;;;5058688;28;20090;-68
2022/04/24 03:27:24;;;;;;;95.47;53.63;;;8.40;83.50;;;;;;5060544;28;20032;-68
2022/04/24 03:29:50;;;;;;;91.85;50.40;;;8.40;83.70;;;;;;5057370;28;20032;-68
2022/04/24 03:32:16;;;;;;;110.80;57.80;;;8.30;83.90;;;;;;5058314;28;20028;-68
2022/04/24 03:34:42;;;;;;;100.53;55.08;;;8.30;83.50;;;;;;5057791;28;20078;-68
2022/04/24 03:37:08;;;;;;;122.55;59.85;;;8.30;82.70;;;;;;5057965;28;20060;-68
2022/04/24 03:39:33;;;;;;;112.90;59.05;;;8.30;83.30;;;;;;5059209;28;20028;-68
2022/04/24 03:41:59;;;;;;;106.93;57.97;;;8.20;82.60;;;;;;5057146;28;20041;-68
2022/04/24 03:44:25;;;;;;;107.13;57.42;;;8.20;82.40;;;;;;5056049;28;20074;-69
2022/04/24 03:46:50;;;;;;;96.10;54.42;;;8.20;82.30;;;;;;5059078;28;20033;-69
2022/04/24 03:49:16;;;;;;;95.57;52.13;;;8.20;82.50;;;;;;5062983;28;20036;-70
2022/04/24 03:51:42;;;;;;;29.77;20.67;;;8.10;82.70;;;;;;5058005;28;20037;-70
2022/04/24 03:54:08;;;;;;;25.05;15.32;;;8.00;87.30;;;;;;5056024;28;20103;-70
2022/04/24 03:56:34;;;;;;;26.30;16.58;;;7.80;89.50;;;;;;5067198;28;20380;-70
2022/04/24 03:59:00;;;;;;;19.80;12.13;;;7.80;88.70;;;;;;5065072;28;20021;-70
2022/04/24 04:01:26;;;;;;;16.52;9.80;;;7.70;89.30;;;;;;5060579;28;20322;-70
2022/04/24 04:03:52;;;;;;;10.30;6.53;;;7.50;90.10;;;;;;5077240;28;20028;-70
2022/04/24 04:06:19;;;;;;;6.47;3.95;;;7.40;92.10;;;;;;5075232;28;20435;-70
2022/04/24 04:08:45;;;;;;;5.93;2.65;;;7.20;95.20;;;;;;5073406;28;20070;-70
2022/04/24 04:11:11;;;;;;;4.40;2.17;;;7.00;94.60;;;;;;5067882;28;20044;-70
2022/04/24 04:13:36;;;;;;;3.45;1.70;;;6.80;95.00;;;;;;5078139;28;20099;-69
2022/04/24 04:16:02;;;;;;;5.20;1.48;;;6.60;96.40;;;;;;5080199;28;20107;-69
2022/04/24 04:18:28;;;;;;;2.22;1.13;;;6.40;96.00;;;;;;5079289;28;20313;-70
2022/04/24 04:20:53;;;;;;;3.60;1.15;;;6.30;96.30;;;;;;5075447;28;20021;-70
2022/04/24 04:23:19;;;;;;;2.45;1.10;;;6.30;97.30;;;;;;5076344;28;20097;-70
2022/04/24 04:25:45;;;;;;;2.25;1.10;;;6.20;96.20;;;;;;5080019;28;20074;-70
2022/04/24 04:28:10;;;;;;;2.38;1.10;;;6.20;95.90;;;;;;5080634;28;20063;-70
2022/04/24 04:30:36;;;;;;;2.60;1.02;;;6.20;93.80;;;;;;5069660;28;20085;-69
2022/04/24 04:33:02;;;;;;;2.75;1.02;;;6.10;94.20;;;;;;5085708;28;20028;-70
2022/04/24 04:35:27;;;;;;;1.95;1.00;;;6.10;93.90;;;;;;5073219;28;20067;-70
2022/04/24 04:37:53;;;;;;;8.18;1.10;;;6.00;93.90;;;;;;5073288;28;20032;-70
2022/04/24 04:40:22;;;;;;;1.70;0.98;;;6.00;93.50;;;;;;5074883;28;20024;-70
2022/04/24 04:42:49;;;;;;;1.10;0.90;;;6.00;93.60;;;;;;5076852;28;20028;-70
2022/04/24 04:45:16;;;;;;;1.35;0.90;;;6.00;94.10;;;;;;5074162;28;20020;-70
2022/04/24 04:47:42;;;;;;;1.20;0.90;;;6.00;93.70;;;;;;5071909;28;20025;-71
2022/04/24 04:50:08;;;;;;;1.73;0.90;;;6.00;93.30;;;;;;5073001;28;20047;-71
2022/04/24 04:52:34;;;;;;;2.00;0.98;;;5.90;92.90;;;;;;5075693;28;20035;-71
2022/04/24 04:55:01;;;;;;;1.95;1.10;;;5.90;91.70;;;;;;5068938;28;20431;-71
2022/04/24 04:57:27;;;;;;;3.28;1.30;;;5.90;91.10;;;;;;5076083;28;20024;-70
2022/04/24 04:59:52;;;;;;;3.58;1.30;;;5.90;90.30;;;;;;5079007;28;20033;-70
2022/04/24 05:02:18;;;;;;;16.65;10.35;;;5.90;89.10;;;;;;5071000;28;20366;-70
2022/04/24 05:04:46;;;;;;;3.88;1.52;;;5.90;88.50;;;;;;5076185;28;20029;-70
2022/04/24 05:07:12;;;;;;;4.38;1.85;;;6.00;87.70;;;;;;5073741;28;20125;-70
2022/04/24 05:09:38;;;;;;;4.00;2.00;;;6.00;87.60;;;;;;5075007;28;20425;-72
2022/04/24 05:12:05;;;;;;;4.35;1.95;;;6.00;87.00;;;;;;5076075;28;20128;-69
2022/04/24 05:14:31;;;;;;;5.88;1.80;;;6.00;86.80;;;;;;5077466;28;20044;-70
2022/04/24 05:16:57;;;;;;;4.03;1.70;;;6.00;85.90;;;;;;5073485;28;20021;-70
2022/04/24 05:19:24;;;;;;;2.55;1.30;;;6.00;86.10;;;;;;5078305;28;20111;-70
2022/04/24 05:21:50;;;;;;;4.05;1.30;;;6.00;85.40;;;;;;5071070;28;20317;-69
2022/04/24 05:24:15;;;;;;;4.18;1.55;;;6.00;85.40;;;;;;5073917;28;20103;-69
2022/04/24 05:26:41;;;;;;;4.38;1.67;;;6.00;85.40;;;;;;5066594;28;20053;-69
2022/04/24 05:29:07;;;;;;;3.28;1.10;;;5.90;85.10;;;;;;5062085;28;20051;-68
2022/04/24 05:31:33;;;;;;;2.67;1.20;;;5.90;84.70;;;;;;5062357;28;20103;-69
2022/04/24 05:33:59;;;;;;;3.47;1.42;;;5.90;84.80;;;;;;5068408;28;20555;-69
2022/04/24 05:36:25;;;;;;;2.67;1.40;;;5.80;85.10;;;;;;5058830;28;20025;-69
2022/04/24 05:38:51;;;;;;;2.20;1.15;;;5.80;84.80;;;;;;5061125;28;20032;-69
2022/04/24 05:41:16;;;;;;;3.88;1.50;;;5.80;85.00;;;;;;5060040;28;20056;-68
2022/04/24 05:43:42;;;;;;;2.55;1.10;;;5.70;85.40;;;;;;5077396;28;20038;-68
2022/04/24 05:46:08;;;;;;;3.38;1.35;;;5.70;84.90;;;;;;5076017;28;20413;-69
2022/04/24 05:48:33;;;;;;;4.97;2.00;;;5.70;84.70;;;;;;5069151;28;20108;-69
2022/04/24 05:51:00;;;;;;;3.00;1.30;;;5.80;84.10;;;;;;5067593;28;20103;-69
2022/04/24 05:53:25;;;;;;;4.90;2.30;;;5.80;84.30;;;;;;5071391;28;20364;-69
2022/04/24 05:55:51;;;;;;;4.03;1.63;;;5.80;84.10;;;;;;5066705;28;20021;-69
2022/04/24 05:58:17;;;;;;;2.63;1.38;;;5.70;84.70;;;;;;5072591;28;20044;-69
2022/04/24 06:00:54;;;;;;;3.25;0.98;;;5.70;84.30;;;;;;5065624;28;20039;-68
2022/04/24 06:03:20;;;;;;;1.90;0.90;;;5.70;84.70;;;;;;5093645;28;20390;-69
2022/04/24 06:05:47;;;;;;;2.30;1.00;;;5.70;85.20;;;;;;5071780;28;20099;-69
2022/04/24 06:08:13;;;;;;;6.00;1.08;;;5.60;85.40;;;;;;5073575;28;20027;-69
2022/04/24 06:10:39;;;;;;;2.97;1.15;;;5.70;84.90;;;;;;5071776;28;20040;-69
2022/04/24 06:13:05;;;;;;;3.78;1.30;;;5.70;85.20;;;;;;5081376;28;20320;-69
2022/04/24 06:15:30;;;;;;;7.00;6.07;;;5.70;85.10;;;;;;5079022;28;20100;-69
2022/04/24 06:17:58;;;;;;;4.40;1.50;;;5.80;84.40;;;;;;5070905;28;20089;-69
2022/04/24 06:20:26;;;;;;;6.28;2.85;;;5.80;85.40;;;;;;5070341;28;20025;-69
2022/04/24 06:22:53;;;;;;;3.35;1.60;;;5.80;84.60;;;;;;5062632;28;20025;-69
2022/04/24 06:25:23;;;;;;;8.52;3.78;;;5.80;85.00;;;;;;5071638;28;20325;-69
2022/04/24 06:27:50;;;;;;;5.70;2.88;;;5.80;86.00;;;;;;5070577;28;20065;-69
2022/04/24 06:30:17;;;;;;;5.72;2.70;;;5.80;86.30;;;;;;5070600;28;20029;-69
2022/04/24 06:32:44;;;;;;;4.70;2.38;;;5.80;86.30;;;;;;5069532;28;20029;-70
2022/04/24 06:35:14;;;;;;;3.47;1.83;;;5.80;86.30;;;;;;5074835;28;20077;-70
2022/04/24 06:37:41;;;;;;;4.65;2.50;;;5.80;86.10;;;;;;5066486;28;20024;-70
2022/04/24 06:40:08;;;;;;;3.40;1.60;;;5.80;86.40;;;;;;5059298;28;20290;-70
2022/04/24 06:42:34;;;;;;;4.03;1.60;;;5.80;86.70;;;;;;5073986;28;20535;-70
2022/04/24 06:45:02;;;;;;;4.10;1.85;;;5.70;87.30;;;;;;5059937;28;20029;-69
2022/04/24 06:47:29;;;;;;;4.60;2.05;;;5.70;86.90;;;;;;5056939;28;20191;-70
2022/04/24 06:49:55;;;;;;;3.75;1.88;;;5.80;87.30;;;;;;5071063;28;20047;-70
2022/04/24 06:52:21;;;;;;;5.00;2.55;;;5.80;87.40;;;;;;5053739;28;20029;-70
2022/04/24 06:54:47;;;;;;;4.30;1.75;;;5.80;87.70;;;;;;5069052;28;20087;-70
2022/04/24 06:57:13;;;;;;;5.38;2.03;;;5.80;88.10;;;;;;5060524;28;20028;-69
2022/04/24 06:59:39;;;;;;;2.53;1.27;;;5.80;88.40;;;;;;5072206;28;20020;-70
2022/04/24 07:02:05;;;;;;;2.92;1.33;;;5.80;89.00;;;;;;5074409;28;20024;-70
2022/04/24 07:04:30;;;;;;;3.53;1.50;;;5.80;89.50;;;;;;5069942;28;20434;-70
2022/04/24 07:06:56;;;;;;;3.53;1.55;;;5.80;89.50;;;;;;5086516;28;20112;-70
2022/04/24 07:09:22;;;;;;;6.47;2.00;;;5.80;89.30;;;;;;5074541;28;20032;-70
2022/04/24 07:11:47;;;;;;;4.35;1.98;;;5.80;89.00;;;;;;5059129;28;20037;-70
2022/04/24 07:14:13;;;;;;;3.80;2.00;;;5.80;88.60;;;;;;5070267;28;20025;-70
2022/04/24 07:16:39;;;;;;;4.20;1.95;;;5.80;88.70;;;;;;5065059;28;20025;-70
2022/04/24 07:19:05;;;;;;;17.95;15.88;;;5.90;88.70;;;;;;5071424;28;20020;-70
2022/04/24 07:21:31;;;;;;;3.95;1.90;;;5.90;89.30;;;;;;5068599;28;20021;-70
2022/04/24 07:23:59;;;;;;;8.43;3.67;;;5.90;90.20;;;;;;5069455;28;20314;-70
2022/04/24 07:26:25;;;;;;;5.22;2.53;;;5.80;90.40;;;;;;5076253;28;20043;-70
2022/04/24 07:28:51;;;;;;;6.28;3.33;;;5.90;90.60;;;;;;5081959;28;20024;-69
2022/04/24 07:31:19;;;;;;;9.27;5.00;;;5.90;90.40;;;;;;5080916;28;20052;-68
2022/04/24 07:33:45;;;;;;;2.83;1.60;;;6.00;90.00;;;;;;5072670;28;20125;-68
2022/04/24 07:36:11;;;;;;;3.72;1.55;;;6.10;91.60;;;;;;5078239;28;20095;-68
2022/04/24 07:38:36;;;;;;;2.47;1.30;;;6.00;92.90;;;;;;5083516;28;20460;-69
2022/04/24 07:41:05;;;;;;;4.30;1.65;;;6.10;91.80;;;;;;5077027;28;20024;-69
2022/04/24 07:43:30;;;;;;;3.03;1.52;;;6.10;92.50;;;;;;5070123;28;20032;-71
2022/04/24 07:45:56;;;;;;;4.22;1.70;;;6.10;92.40;;;;;;5078909;28;20035;-69
2022/04/24 07:48:22;;;;;;;5.07;2.38;;;6.10;91.70;;;;;;5083519;28;20043;-70
2022/04/24 07:50:49;;;;;;;10.57;5.45;;;6.20;91.20;;;;;;5080321;28;20028;-69
2022/04/24 07:53:16;;;;;;;9.00;5.15;;;6.30;92.10;;;;;;5075243;28;20029;-70
2022/04/24 07:55:51;;;;;;;3.85;1.83;;;6.30;92.30;;;;;;5071820;28;20028;-70
2022/04/24 07:58:17;;;;;;;3.58;1.65;;;6.30;94.10;;;;;;5078228;28;20444;-69
2022/04/24 08:00:44;;;;;;;9.60;5.90;;;6.40;93.00;;;;;;5073556;28;20032;-69
2022/04/24 08:03:11;;;;;;;2.85;1.50;;;6.50;93.10;;;;;;5082171;28;20107;-69
2022/04/24 08:05:48;;;;;;;4.18;2.28;;;6.50;93.70;;;;;;5084015;28;20024;-69
2022/04/24 08:08:24;;;;;;;2.45;1.20;;;6.50;93.50;;;;;;5096668;28;20080;-69
2022/04/24 08:10:57;;;;;;;1.50;0.98;;;6.50;94.20;;;;;;5096891;28;20468;-69
2022/04/24 08:13:25;;;;;;;4.65;3.47;;;6.60;93.80;;;;;;5076471;28;20024;-69
2022/04/24 08:15:56;;;;;;;2.10;1.30;;;6.60;93.40;;;;;;5075958;28;20028;-70
2022/04/24 08:18:23;;;;;;;5.82;1.20;;;6.70;94.90;;;;;;5076528;28;20028;-69
2022/04/24 08:20:49;;;;;;;2.60;1.30;;;6.60;94.90;;;;;;5074641;28;20086;-69
2022/04/24 08:23:18;;;;;;;4.25;2.53;;;6.60;94.60;;;;;;5075027;28;20032;-69
2022/04/24 08:25:45;;;;;;;2.92;1.65;;;6.70;93.50;;;;;;5076558;28;20021;-69
2022/04/24 08:28:11;;;;;;;2.58;1.33;;;6.80;94.50;;;;;;5091479;28;20103;-69
2022/04/24 08:30:42;;;;;;;2.80;1.55;;;6.70;94.70;;;;;;5073275;28;20029;-68
2022/04/24 08:33:09;;;;;;;3.40;1.45;;;6.80;94.50;;;;;;5075604;28;20056;-68
2022/04/24 08:35:35;;;;;;;6.90;3.75;;;6.80;95.30;;;;;;5079310;28;20028;-69
2022/04/24 08:38:00;;;;;;;10.18;4.90;;;6.80;94.80;;;;;;5076553;28;20027;-69
2022/04/24 08:40:26;;;;;;;6.32;3.38;;;6.90;95.20;;;;;;5075892;28;20032;-70
2022/04/24 08:42:54;;;;;;;20.13;7.60;;;7.00;94.70;;;;;;5074895;28;20037;-69
2022/04/24 08:45:24;;;;;;;3.80;1.60;;;7.00;96.20;;;;;;5072528;28;20024;-69
2022/04/24 08:47:51;;;;;;;7.95;3.40;;;7.00;97.00;;;;;;5077277;28;20417;-69
2022/04/24 08:50:17;;;;;;;6.03;3.20;;;7.00;95.90;;;;;;5075142;28;20028;-69
2022/04/24 08:52:44;;;;;;;7.22;3.88;;;7.10;94.70;;;;;;5074626;28;20052;-69
2022/04/24 08:55:10;;;;;;;5.05;2.40;;;7.10;96.40;;;;;;5077277;28;20031;-69
2022/04/24 08:57:36;;;;;;;5.18;3.13;;;7.00;96.30;;;;;;5075058;28;20329;-69
2022/04/24 09:00:04;;;;;;;4.60;2.42;;;7.00;97.40;;;;;;5080581;28;20021;-69
2022/04/24 09:02:30;;;;;;;4.57;2.53;;;6.90;96.40;;;;;;5083968;28;20024;-69
2022/04/24 09:04:56;;;;;;;6.10;3.42;;;6.90;96.20;;;;;;5080052;28;20032;-68
2022/04/24 09:07:24;;;;;;;4.93;2.63;;;7.00;95.50;;;;;;5072768;28;20123;-68
2022/04/24 09:10:03;;;;;;;4.13;2.25;;;7.00;95.00;;;;;;5076079;28;20029;-68
2022/04/24 09:12:30;;;;;;;4.50;2.10;;;7.10;96.10;;;;;;5079318;28;20136;-68
2022/04/24 09:15:04;;;;;;;5.53;2.00;;;7.20;95.90;;;;;;5089847;28;20103;-68
2022/04/24 09:17:35;;;;;;;4.32;1.50;;;7.10;97.10;;;;;;5086345;28;20056;-69
2022/04/24 09:20:15;;;;;;;4.93;1.73;;;7.10;96.40;;;;;;5083380;28;20025;-69
2022/04/24 09:22:42;;;;;;;4.97;1.63;;;7.10;97.80;;;;;;5068196;28;20462;-69
2022/04/24 09:25:10;;;;;;;3.05;1.60;;;7.20;96.40;;;;;;5074608;28;20028;-69
2022/04/24 09:27:37;;;;;;;3.97;1.75;;;7.20;96.40;;;;;;5073170;28;20389;-69
2022/04/24 09:30:14;;;;;;;3.13;1.67;;;7.30;94.70;;;;;;5074837;28;20052;-69
2022/04/24 09:32:51;;;;;;;1.85;1.00;;;7.50;95.80;;;;;;5076042;28;20436;-69
2022/04/24 09:35:32;;;;;;;6.63;4.10;;;7.50;97.60;;;;;;5075489;28;20031;-69
2022/04/24 09:38:14;;;;;;;4.97;3.00;;;7.70;97.30;;;;;;5073513;28;20021;-69
2022/04/24 09:40:48;;;;;;;4.80;2.40;;;7.60;96.90;;;;;;5071985;28;20024;-69
2022/04/24 09:43:15;;;;;;;4.93;2.57;;;7.60;97.10;;;;;;5071533;28;20028;-69
2022/04/24 09:45:46;;;;;;;5.20;2.30;;;7.70;96.10;;;;;;5072970;28;20289;-70
2022/04/24 09:48:13;;;;;;;4.43;1.80;;;7.70;96.80;;;;;;5072808;28;20106;-70
2022/04/24 09:50:39;;;;;;;5.03;2.28;;;7.80;96.50;;;;;;5071602;28;20451;-69
2022/04/24 09:53:05;;;;;;;3.88;1.90;;;7.80;96.00;;;;;;5072718;28;20044;-70
2022/04/24 09:55:32;;;;;;;4.88;2.50;;;7.90;97.00;;;;;;5072765;28;20027;-69
2022/04/24 09:57:58;;;;;;;4.47;2.22;;;7.90;95.90;;;;;;5072892;28;20035;-69
2022/04/24 10:00:25;;;;;;;3.78;1.90;;;7.90;97.00;;;;;;5069978;28;20021;-69
2022/04/24 10:02:52;;;;;;;5.32;2.97;;;7.80;96.30;;;;;;5071037;28;20126;-70
2022/04/24 10:05:18;;;;;;;4.15;2.33;;;7.90;96.10;;;;;;5070105;28;20032;-70
2022/04/24 10:07:46;;;;;;;5.30;2.90;;;7.90;96.60;;;;;;5059833;28;20024;-69
2022/04/24 10:10:14;;;;;;;4.28;1.85;;;7.90;95.50;;;;;;5064647;28;20603;-69
2022/04/24 10:12:43;;;;;;;4.25;2.30;;;7.90;96.10;;;;;;5076716;28;20035;-69
2022/04/24 10:15:14;;;;;;;4.63;2.55;;;7.90;95.70;;;;;;5080231;28;20024;-70
2022/04/24 10:18:02;;;;;;;6.00;2.45;;;7.90;95.20;;;;;;5085250;28;20313;-69
2022/04/24 10:20:40;;;;;;;4.43;2.47;;;8.00;94.60;;;;;;5094606;28;20401;-69
2022/04/24 10:23:06;;;;;;;5.20;2.45;;;8.00;95.80;;;;;;5084526;28;20032;-68
2022/04/24 10:25:42;;;;;;;5.28;2.83;;;8.00;95.20;;;;;;5075545;28;20036;-68
2022/04/24 10:28:13;;;;;;;4.65;2.10;;;8.20;94.80;;;;;;5073318;28;20111;-68
2022/04/24 10:30:40;;;;;;;3.92;2.20;;;8.20;96.10;;;;;;5072771;28;20024;-68
2022/04/24 10:33:22;;;;;;;5.68;3.17;;;8.30;95.70;;;;;;5073517;28;20078;-68
2022/04/24 10:36:02;;;;;;;5.57;3.20;;;8.50;95.50;;;;;;5075451;28;20025;-71
2022/04/24 10:38:29;;;;;;;4.30;2.22;;;8.50;96.20;;;;;;5074272;28;20013;-71
2022/04/24 10:41:07;;;;;;;4.63;2.30;;;8.60;96.20;;;;;;5074649;28;20036;-70
2022/04/24 10:43:35;;;;;;;4.90;2.40;;;8.60;95.70;;;;;;5075445;28;20035;-71
2022/04/24 10:46:01;;;;;;;4.97;2.80;;;8.70;96.20;;;;;;5075520;28;20024;-69
2022/04/24 10:48:35;;;;;;;4.00;2.10;;;8.80;95.20;;;;;;5075541;28;20029;-70
2022/04/24 10:51:01;;;;;;;4.18;2.30;;;8.90;96.20;;;;;;5074072;28;20110;-69
2022/04/24 10:53:27;;;;;;;5.18;2.95;;;8.90;95.90;;;;;;5075035;28;20024;-69
2022/04/24 10:56:04;;;;;;;4.60;2.75;;;9.10;95.50;;;;;;5077366;28;20052;-69
2022/04/24 10:58:30;;;;;;;5.80;2.53;;;9.30;96.10;;;;;;5078299;28;20024;-69
2022/04/24 11:01:09;;;;;;;5.55;2.60;;;9.30;96.60;;;;;;5078806;28;20012;-69
2022/04/24 11:03:40;;;;;;;5.68;2.63;;;9.40;97.40;;;;;;5063048;28;20028;-69
2022/04/24 11:06:20;;;;;;;5.90;3.17;;;9.40;97.50;;;;;;5078978;28;20020;-69
2022/04/24 11:08:47;;;;;;;4.07;2.47;;;9.10;97.00;;;;;;5077834;28;20048;-69
2022/04/24 11:11:14;;;;;;;4.70;2.38;;;9.00;96.00;;;;;;5077957;28;20053;-69
2022/04/24 11:13:41;;;;;;;5.53;3.30;;;8.80;95.40;;;;;;5078816;28;20017;-70
2022/04/24 11:16:06;;;;;;;4.97;2.90;;;8.90;95.90;;;;;;5078526;28;20157;-69
2022/04/24 11:18:32;;;;;;;5.07;3.00;;;8.80;96.00;;;;;;5078885;28;20048;-69
2022/04/24 11:21:04;;;;;;;4.82;2.97;;;8.70;95.30;;;;;;5078782;28;20406;-69
2022/04/24 11:23:32;;;;;;;5.28;2.38;;;8.60;94.90;;;;;;5077654;28;20291;-69
2022/04/24 11:25:58;;;;;;;4.85;2.75;;;8.60;95.40;;;;;;5077441;28;20029;-69
2022/04/24 11:28:34;;;;;;;4.72;2.53;;;8.60;94.60;;;;;;5078506;28;20021;-69
2022/04/24 11:31:14;;;;;;;5.28;3.08;;;8.70;96.50;;;;;;5078171;28;20024;-70
2022/04/24 11:34:00;;;;;;;7.15;4.30;;;8.60;95.20;;;;;;5077123;28;20409;-70
2022/04/24 11:36:35;;;;;;;8.88;3.92;;;8.50;94.30;;;;;;5078534;28;20021;-71
2022/04/24 11:39:04;;;;;;;5.75;3.35;;;8.40;93.30;;;;;;5077209;28;20028;-71
2022/04/24 11:41:31;;;;;;;4.78;2.45;;;8.30;94.20;;;;;;5077454;28;20082;-70
2022/04/24 11:52:41;;;;;;;4.47;2.10;;;8.40;94.30;;;;;;5077134;28;20091;-70
2022/04/24 11:55:13;;;;;;;4.40;1.50;;;8.40;95.30;;;;;;5077277;28;20448;-71
2022/04/24 11:57:39;;;;;;;3.97;1.83;;;8.40;95.30;;;;;;5077971;28;20066;-71
2022/04/24 12:00:08;;;;;;;5.30;1.70;;;8.40;94.70;;;;;;5077677;28;20024;-71
2022/04/24 12:02:35;;;;;;;4.55;2.00;;;8.50;95.80;;;;;;5077681;28;20028;-70
2022/04/24 12:05:01;;;;;;;3.97;1.70;;;8.50;96.10;;;;;;5077525;28;20024;-71
2022/04/24 12:07:34;;;;;;;3.42;1.90;;;8.50;94.20;;;;;;5076823;28;20040;-71
2022/04/24 12:10:09;;;;;;;5.40;2.20;;;8.70;94.10;;;;;;5076003;28;20085;-71
2022/04/24 12:12:49;;;;;;;3.35;1.63;;;8.80;96.90;;;;;;5077730;28;20460;-71
2022/04/24 12:15:17;;;;;;;5.72;2.60;;;8.70;95.50;;;;;;5077791;28;20033;-71
2022/04/24 12:17:56;;;;;;;10.70;8.18;;;8.90;95.30;;;;;;5076421;28;20025;-72
2022/04/24 12:20:45;;;;;;;5.55;3.30;;;9.10;94.50;;;;;;5077712;28;20082;-71
2022/04/24 12:23:12;;;;;;;6.95;3.97;;;9.20;95.30;;;;;;5076582;28;20103;-70
2022/04/24 12:26:00;;;;;;;2.70;1.10;;;9.40;94.50;;;;;;5076785;28;20032;-71
2022/04/24 12:28:39;;;;;;;5.45;2.38;;;9.40;98.00;;;;;;5077528;28;20060;-70
2022/04/24 12:31:06;;;;;;;5.53;2.30;;;9.20;98.00;;;;;;5076903;28;20020;-70
2022/04/24 12:33:43;;;;;;;2.67;1.30;;;9.20;97.40;;;;;;5077284;28;20052;-70
2022/04/24 12:36:14;;;;;;;2.90;1.45;;;9.30;98.00;;;;;;5077326;28;20055;-70
2022/04/24 12:38:52;;;;;;;4.30;2.13;;;9.10;97.70;;;;;;5075288;28;20035;-70
2022/04/24 12:41:22;;;;;;;1.70;1.00;;;9.20;97.20;;;;;;5076389;28;20036;-70
2022/04/24 12:43:48;;;;;;;3.47;1.02;;;9.10;98.00;;;;;;5077250;28;20032;-70
2022/04/24 12:46:14;;;;;;;1.38;1.00;;;9.00;97.70;;;;;;5076819;28;20398;-70
2022/04/24 12:48:51;;;;;;;2.17;1.20;;;8.90;98.00;;;;;;5077219;28;20025;-70
2022/04/24 12:51:20;;;;;;;1.70;1.00;;;9.00;97.40;;;;;;5076997;28;20191;-70
2022/04/24 12:53:46;;;;;;;3.55;1.40;;;9.00;97.60;;;;;;5074936;28;20413;-70
2022/04/24 12:56:12;;;;;;;3.50;1.75;;;9.10;97.60;;;;;;5076818;28;20085;-70
2022/04/24 12:58:38;;;;;;;3.50;1.40;;;9.00;97.20;;;;;;5076882;28;20047;-71
2022/04/24 13:01:04;;;;;;;2.97;1.45;;;9.00;98.00;;;;;;5076568;28;20025;-70
2022/04/24 13:03:30;;;;;;;3.05;1.52;;;9.00;97.20;;;;;;5076589;28;20032;-70